sensor_id;sensor_type;location;lat;lon;timestamp;temperature;humidity
30097;DHT22;16915;51.466;3.610;2022-07-21T00:01:01;19.50;99.90
30097;DHT22;16915;51.466;3.610;2022-07-21T00:03:27;19.50;99.90
30097;DHT22;16915;51.466;3.610;2022-07-21T00:05:54;19.40;99.90
30097;DHT22;16915;51.466;3.610;2022-07-21T00:08:20;19.40;99.90
30097;DHT22;16915;51.466;3.610;2022-07-21T00:10:46;19.40;99.90
30097;DHT22;16915;51.466;3.610;2022-07-21T00:13:11;19.30;99.90
30097;DHT22;16915;51.466;3.610;2022-07-21T00:15:37;19.30;99.90
30097;DHT22;16915;51.466;3.610;2022-07-21T00:18:03;19.20;99.90
30097;DHT22;16915;51.466;3.610;2022-07-21T00:20:29;19.10;99.90
30097;DHT22;16915;51.466;3.610;2022-07-21T00:22:56;19.10;99.90
30097;DHT22;16915;51.466;3.610;2022-07-21T00:25:22;19.10;99.90
30097;DHT22;16915;51.466;3.610;2022-07-21T00:27:47;19.10;99.90
30097;DHT22;16915;51.466;3.610;2022-07-21T00:30:14;19.10;99.90
30097;DHT22;16915;51.466;3.610;2022-07-21T00:32:40;19.10;99.90
30097;DHT22;16915;51.466;3.610;2022-07-21T00:35:07;19.10;99.90
30097;DHT22;16915;51.466;3.610;2022-07-21T00:37:33;19.10;99.90
30097;DHT22;16915;51.466;3.610;2022-07-21T00:39:59;19.10;99.90
30097;DHT22;16915;51.466;3.610;2022-07-21T00:42:28;19.10;99.90
30097;DHT22;16915;51.466;3.610;2022-07-21T00:44:55;19.10;99.90
30097;DHT22;16915;51.466;3.610;2022-07-21T00:47:22;19.10;99.90
30097;DHT22;16915;51.466;3.610;2022-07-21T00:49:49;19.10;99.90
30097;DHT22;16915;51.466;3.610;2022-07-21T00:52:15;19.00;99.90
30097;DHT22;16915;51.466;3.610;2022-07-21T00:54:41;19.00;99.90
30097;DHT22;16915;51.466;3.610;2022-07-21T00:57:07;19.00;99.90
30097;DHT22;16915;51.466;3.610;2022-07-21T00:59:33;19.00;99.90
30097;DHT22;16915;51.466;3.610;2022-07-21T01:01:59;19.00;99.90
30097;DHT22;16915;51.466;3.610;2022-07-21T01:04:25;19.00;99.90
30097;DHT22;16915;51.466;3.610;2022-07-21T01:06:52;19.00;99.90
30097;DHT22;16915;51.466;3.610;2022-07-21T01:09:19;18.90;99.90
30097;DHT22;16915;51.466;3.610;2022-07-21T01:11:46;18.90;99.90
30097;DHT22;16915;51.466;3.610;2022-07-21T01:14:12;18.90;99.90
30097;DHT22;16915;51.466;3.610;2022-07-21T01:16:38;18.90;99.90
30097;DHT22;16915;51.466;3.610;2022-07-21T01:19:06;18.80;99.90
30097;DHT22;16915;51.466;3.610;2022-07-21T01:21:37;18.80;99.90
30097;DHT22;16915;51.466;3.610;2022-07-21T01:24:04;18.80;99.90
30097;DHT22;16915;51.466;3.610;2022-07-21T01:26:31;18.80;99.90
30097;DHT22;16915;51.466;3.610;2022-07-21T01:29:04;18.80;99.90
30097;DHT22;16915;51.466;3.610;2022-07-21T01:31:29;18.80;99.90
30097;DHT22;16915;51.466;3.610;2022-07-21T01:33:55;18.80;99.90
30097;DHT22;16915;51.466;3.610;2022-07-21T01:36:21;18.90;99.90
30097;DHT22;16915;51.466;3.610;2022-07-21T01:38:46;18.90;99.90
30097;DHT22;16915;51.466;3.610;2022-07-21T01:41:30;18.90;99.90
30097;DHT22;16915;51.466;3.610;2022-07-21T01:44:00;18.70;99.90
30097;DHT22;16915;51.466;3.610;2022-07-21T01:46:26;18.80;99.90
30097;DHT22;16915;51.466;3.610;2022-07-21T01:48:52;18.80;99.90
30097;DHT22;16915;51.466;3.610;2022-07-21T01:51:18;18.80;99.90
30097;DHT22;16915;51.466;3.610;2022-07-21T01:53:43;18.80;99.90
30097;DHT22;16915;51.466;3.610;2022-07-21T01:56:09;18.90;99.90
30097;DHT22;16915;51.466;3.610;2022-07-21T01:58:35;18.90;99.90
30097;DHT22;16915;51.466;3.610;2022-07-21T02:01:00;18.90;99.90
30097;DHT22;16915;51.466;3.610;2022-07-21T02:03:26;18.90;99.90
30097;DHT22;16915;51.466;3.610;2022-07-21T02:05:53;18.90;99.90
30097;DHT22;16915;51.466;3.610;2022-07-21T02:08:24;19.00;99.90
30097;DHT22;16915;51.466;3.610;2022-07-21T02:10:50;19.00;99.90
30097;DHT22;16915;51.466;3.610;2022-07-21T02:13:15;19.00;99.90
30097;DHT22;16915;51.466;3.610;2022-07-21T02:15:41;19.00;99.90
30097;DHT22;16915;51.466;3.610;2022-07-21T02:18:06;19.10;99.90
30097;DHT22;16915;51.466;3.610;2022-07-21T02:20:32;19.00;99.90
30097;DHT22;16915;51.466;3.610;2022-07-21T02:22:58;19.00;99.90
30097;DHT22;16915;51.466;3.610;2022-07-21T02:25:24;19.00;99.90
30097;DHT22;16915;51.466;3.610;2022-07-21T02:27:49;19.00;99.90
30097;DHT22;16915;51.466;3.610;2022-07-21T02:30:15;19.00;99.90
30097;DHT22;16915;51.466;3.610;2022-07-21T02:32:40;18.90;99.90
30097;DHT22;16915;51.466;3.610;2022-07-21T02:35:07;18.90;99.90
30097;DHT22;16915;51.466;3.610;2022-07-21T02:37:33;18.90;99.90
30097;DHT22;16915;51.466;3.610;2022-07-21T02:39:58;18.80;99.90
30097;DHT22;16915;51.466;3.610;2022-07-21T02:42:24;18.90;99.90
30097;DHT22;16915;51.466;3.610;2022-07-21T02:44:50;18.90;99.90
30097;DHT22;16915;51.466;3.610;2022-07-21T02:47:15;19.00;99.90
30097;DHT22;16915;51.466;3.610;2022-07-21T02:49:41;19.00;99.90
30097;DHT22;16915;51.466;3.610;2022-07-21T02:52:06;18.90;99.90
30097;DHT22;16915;51.466;3.610;2022-07-21T02:54:32;18.90;99.90
30097;DHT22;16915;51.466;3.610;2022-07-21T02:56:58;18.90;99.90
30097;DHT22;16915;51.466;3.610;2022-07-21T02:59:23;18.80;99.90
30097;DHT22;16915;51.466;3.610;2022-07-21T03:01:49;18.70;99.90
30097;DHT22;16915;51.466;3.610;2022-07-21T03:04:15;18.60;99.90
30097;DHT22;16915;51.466;3.610;2022-07-21T03:06:41;18.50;99.90
30097;DHT22;16915;51.466;3.610;2022-07-21T03:09:08;18.50;99.90
30097;DHT22;16915;51.466;3.610;2022-07-21T03:11:34;18.50;99.90
30097;DHT22;16915;51.466;3.610;2022-07-21T03:14:00;18.40;99.90
30097;DHT22;16915;51.466;3.610;2022-07-21T03:16:25;18.30;99.90
30097;DHT22;16915;51.466;3.610;2022-07-21T03:18:51;18.30;99.90
30097;DHT22;16915;51.466;3.610;2022-07-21T03:21:18;18.40;99.90
30097;DHT22;16915;51.466;3.610;2022-07-21T03:23:43;18.10;99.90
30097;DHT22;16915;51.466;3.610;2022-07-21T03:26:14;18.10;99.90
30097;DHT22;16915;51.466;3.610;2022-07-21T03:28:41;18.10;99.90
30097;DHT22;16915;51.466;3.610;2022-07-21T03:31:07;18.00;99.90
30097;DHT22;16915;51.466;3.610;2022-07-21T03:33:33;18.10;99.90
30097;DHT22;16915;51.466;3.610;2022-07-21T03:35:58;18.00;99.90
30097;DHT22;16915;51.466;3.610;2022-07-21T03:41:46;18.00;99.90
30097;DHT22;16915;51.466;3.610;2022-07-21T03:44:12;18.00;99.90
30097;DHT22;16915;51.466;3.610;2022-07-21T03:46:38;17.90;99.90
30097;DHT22;16915;51.466;3.610;2022-07-21T03:49:03;17.90;99.90
30097;DHT22;16915;51.466;3.610;2022-07-21T03:51:29;18.00;99.90
30097;DHT22;16915;51.466;3.610;2022-07-21T03:53:54;18.10;99.90
30097;DHT22;16915;51.466;3.610;2022-07-21T03:56:20;18.00;99.90
30097;DHT22;16915;51.466;3.610;2022-07-21T03:58:45;18.10;99.90
30097;DHT22;16915;51.466;3.610;2022-07-21T04:01:11;18.20;99.90
30097;DHT22;16915;51.466;3.610;2022-07-21T04:03:36;18.20;99.90
30097;DHT22;16915;51.466;3.610;2022-07-21T04:06:02;18.20;99.90
30097;DHT22;16915;51.466;3.610;2022-07-21T04:08:28;18.20;99.90
30097;DHT22;16915;51.466;3.610;2022-07-21T04:10:53;18.20;99.90
30097;DHT22;16915;51.466;3.610;2022-07-21T04:13:19;18.20;99.90
30097;DHT22;16915;51.466;3.610;2022-07-21T04:15:45;18.20;99.90
30097;DHT22;16915;51.466;3.610;2022-07-21T04:18:10;18.20;99.90
30097;DHT22;16915;51.466;3.610;2022-07-21T04:20:36;18.20;99.90
30097;DHT22;16915;51.466;3.610;2022-07-21T04:23:03;18.10;99.90
30097;DHT22;16915;51.466;3.610;2022-07-21T04:25:29;18.10;99.90
30097;DHT22;16915;51.466;3.610;2022-07-21T04:27:54;18.10;99.90
30097;DHT22;16915;51.466;3.610;2022-07-21T04:30:22;18.10;99.90
30097;DHT22;16915;51.466;3.610;2022-07-21T04:32:49;18.10;99.90
30097;DHT22;16915;51.466;3.610;2022-07-21T04:35:15;18.00;99.90
30097;DHT22;16915;51.466;3.610;2022-07-21T04:37:41;17.90;99.90
30097;DHT22;16915;51.466;3.610;2022-07-21T04:40:09;18.00;99.90
30097;DHT22;16915;51.466;3.610;2022-07-21T04:42:36;18.00;99.90
30097;DHT22;16915;51.466;3.610;2022-07-21T04:45:03;18.00;99.90
30097;DHT22;16915;51.466;3.610;2022-07-21T04:47:29;17.90;99.90
30097;DHT22;16915;51.466;3.610;2022-07-21T04:49:54;17.90;99.90
30097;DHT22;16915;51.466;3.610;2022-07-21T04:52:20;17.90;99.90
30097;DHT22;16915;51.466;3.610;2022-07-21T04:54:46;17.90;99.90
30097;DHT22;16915;51.466;3.610;2022-07-21T04:57:11;17.90;99.90
30097;DHT22;16915;51.466;3.610;2022-07-21T04:59:37;17.90;99.90
30097;DHT22;16915;51.466;3.610;2022-07-21T05:02:03;17.90;99.90
30097;DHT22;16915;51.466;3.610;2022-07-21T05:04:29;17.80;99.90
30097;DHT22;16915;51.466;3.610;2022-07-21T05:06:55;17.80;99.90
30097;DHT22;16915;51.466;3.610;2022-07-21T05:09:21;17.80;99.90
30097;DHT22;16915;51.466;3.610;2022-07-21T05:11:46;17.90;99.90
30097;DHT22;16915;51.466;3.610;2022-07-21T05:14:12;17.80;99.90
30097;DHT22;16915;51.466;3.610;2022-07-21T05:16:37;17.90;99.90
30097;DHT22;16915;51.466;3.610;2022-07-21T05:19:03;17.80;99.90
30097;DHT22;16915;51.466;3.610;2022-07-21T05:21:28;17.80;99.90
30097;DHT22;16915;51.466;3.610;2022-07-21T05:23:54;17.80;99.90
30097;DHT22;16915;51.466;3.610;2022-07-21T05:26:20;17.90;99.90
30097;DHT22;16915;51.466;3.610;2022-07-21T05:28:46;17.80;99.90
30097;DHT22;16915;51.466;3.610;2022-07-21T05:31:11;17.90;99.90
30097;DHT22;16915;51.466;3.610;2022-07-21T05:33:37;17.80;99.90
30097;DHT22;16915;51.466;3.610;2022-07-21T05:36:04;17.90;99.90
30097;DHT22;16915;51.466;3.610;2022-07-21T05:38:30;17.90;99.90
30097;DHT22;16915;51.466;3.610;2022-07-21T05:40:55;17.90;99.90
30097;DHT22;16915;51.466;3.610;2022-07-21T05:43:21;17.90;99.90
30097;DHT22;16915;51.466;3.610;2022-07-21T05:45:47;17.90;99.90
30097;DHT22;16915;51.466;3.610;2022-07-21T05:48:12;17.90;99.90
30097;DHT22;16915;51.466;3.610;2022-07-21T05:50:39;17.90;99.90
30097;DHT22;16915;51.466;3.610;2022-07-21T05:53:05;18.00;99.90
30097;DHT22;16915;51.466;3.610;2022-07-21T05:55:30;17.90;99.90
30097;DHT22;16915;51.466;3.610;2022-07-21T05:57:56;17.80;99.90
30097;DHT22;16915;51.466;3.610;2022-07-21T06:00:22;17.90;99.90
30097;DHT22;16915;51.466;3.610;2022-07-21T06:02:47;17.90;99.90
30097;DHT22;16915;51.466;3.610;2022-07-21T06:05:14;17.80;99.90
30097;DHT22;16915;51.466;3.610;2022-07-21T06:07:40;17.80;99.90
30097;DHT22;16915;51.466;3.610;2022-07-21T06:10:06;17.80;99.90
30097;DHT22;16915;51.466;3.610;2022-07-21T06:12:32;17.80;99.90
30097;DHT22;16915;51.466;3.610;2022-07-21T06:14:58;17.80;99.90
30097;DHT22;16915;51.466;3.610;2022-07-21T06:17:23;17.80;99.90
30097;DHT22;16915;51.466;3.610;2022-07-21T06:19:49;17.80;99.90
30097;DHT22;16915;51.466;3.610;2022-07-21T06:22:15;17.70;99.90
30097;DHT22;16915;51.466;3.610;2022-07-21T06:24:41;17.80;99.90
30097;DHT22;16915;51.466;3.610;2022-07-21T06:27:07;17.80;99.90
30097;DHT22;16915;51.466;3.610;2022-07-21T06:29:33;17.80;99.90
30097;DHT22;16915;51.466;3.610;2022-07-21T06:31:59;17.70;99.90
30097;DHT22;16915;51.466;3.610;2022-07-21T06:34:24;17.80;99.90
30097;DHT22;16915;51.466;3.610;2022-07-21T06:36:50;17.80;99.90
30097;DHT22;16915;51.466;3.610;2022-07-21T06:39:15;17.70;99.90
30097;DHT22;16915;51.466;3.610;2022-07-21T06:41:41;17.70;99.90
30097;DHT22;16915;51.466;3.610;2022-07-21T06:44:07;17.70;99.90
30097;DHT22;16915;51.466;3.610;2022-07-21T06:46:33;17.70;99.90
30097;DHT22;16915;51.466;3.610;2022-07-21T06:49:00;17.80;99.90
30097;DHT22;16915;51.466;3.610;2022-07-21T06:51:26;17.80;99.90
30097;DHT22;16915;51.466;3.610;2022-07-21T06:53:52;17.80;99.90
30097;DHT22;16915;51.466;3.610;2022-07-21T06:56:18;17.80;99.90
30097;DHT22;16915;51.466;3.610;2022-07-21T06:58:44;17.80;99.90
30097;DHT22;16915;51.466;3.610;2022-07-21T07:01:09;17.80;99.90
30097;DHT22;16915;51.466;3.610;2022-07-21T07:03:36;17.70;99.90
30097;DHT22;16915;51.466;3.610;2022-07-21T07:06:03;17.70;99.90
30097;DHT22;16915;51.466;3.610;2022-07-21T07:08:30;17.70;99.90
30097;DHT22;16915;51.466;3.610;2022-07-21T07:10:55;17.60;99.90
30097;DHT22;16915;51.466;3.610;2022-07-21T07:13:21;17.60;99.90
30097;DHT22;16915;51.466;3.610;2022-07-21T07:15:47;17.60;99.90
30097;DHT22;16915;51.466;3.610;2022-07-21T07:18:12;17.60;99.90
30097;DHT22;16915;51.466;3.610;2022-07-21T07:20:38;17.60;99.90
30097;DHT22;16915;51.466;3.610;2022-07-21T07:23:04;17.70;99.90
30097;DHT22;16915;51.466;3.610;2022-07-21T07:25:30;17.60;99.90
30097;DHT22;16915;51.466;3.610;2022-07-21T07:27:56;17.60;99.90
30097;DHT22;16915;51.466;3.610;2022-07-21T07:30:23;17.70;99.90
30097;DHT22;16915;51.466;3.610;2022-07-21T07:32:48;17.80;99.90
30097;DHT22;16915;51.466;3.610;2022-07-21T07:35:15;17.70;99.90
30097;DHT22;16915;51.466;3.610;2022-07-21T07:37:43;17.70;99.90
30097;DHT22;16915;51.466;3.610;2022-07-21T07:40:12;17.70;99.90
30097;DHT22;16915;51.466;3.610;2022-07-21T07:42:38;17.60;99.90
30097;DHT22;16915;51.466;3.610;2022-07-21T07:45:06;17.60;99.90
30097;DHT22;16915;51.466;3.610;2022-07-21T07:47:32;17.60;99.90
30097;DHT22;16915;51.466;3.610;2022-07-21T07:49:58;17.60;99.90
30097;DHT22;16915;51.466;3.610;2022-07-21T07:52:24;17.50;99.90
30097;DHT22;16915;51.466;3.610;2022-07-21T07:54:50;17.50;99.90
30097;DHT22;16915;51.466;3.610;2022-07-21T07:57:15;17.50;99.90
30097;DHT22;16915;51.466;3.610;2022-07-21T07:59:41;17.50;99.90
30097;DHT22;16915;51.466;3.610;2022-07-21T08:02:07;17.50;99.90
30097;DHT22;16915;51.466;3.610;2022-07-21T08:04:32;17.50;99.90
30097;DHT22;16915;51.466;3.610;2022-07-21T08:06:58;17.50;99.90
30097;DHT22;16915;51.466;3.610;2022-07-21T08:09:23;17.60;99.90
30097;DHT22;16915;51.466;3.610;2022-07-21T08:11:49;17.60;99.90
30097;DHT22;16915;51.466;3.610;2022-07-21T08:14:16;17.70;99.90
30097;DHT22;16915;51.466;3.610;2022-07-21T08:16:42;17.70;99.90
30097;DHT22;16915;51.466;3.610;2022-07-21T08:19:08;17.70;99.90
30097;DHT22;16915;51.466;3.610;2022-07-21T08:21:34;17.70;99.90
30097;DHT22;16915;51.466;3.610;2022-07-21T08:24:03;17.70;99.90
30097;DHT22;16915;51.466;3.610;2022-07-21T08:26:29;17.70;99.90
30097;DHT22;16915;51.466;3.610;2022-07-21T08:28:55;17.70;99.90
30097;DHT22;16915;51.466;3.610;2022-07-21T08:31:22;17.70;99.90
30097;DHT22;16915;51.466;3.610;2022-07-21T08:33:48;17.70;99.90
30097;DHT22;16915;51.466;3.610;2022-07-21T08:36:13;17.80;99.90
30097;DHT22;16915;51.466;3.610;2022-07-21T08:38:39;17.70;99.90
30097;DHT22;16915;51.466;3.610;2022-07-21T08:41:05;17.70;99.90
30097;DHT22;16915;51.466;3.610;2022-07-21T08:43:32;17.80;99.90
30097;DHT22;16915;51.466;3.610;2022-07-21T08:45:58;17.70;99.90
30097;DHT22;16915;51.466;3.610;2022-07-21T08:48:25;17.80;99.90
30097;DHT22;16915;51.466;3.610;2022-07-21T08:50:51;17.80;99.90
30097;DHT22;16915;51.466;3.610;2022-07-21T08:53:17;17.90;99.90
30097;DHT22;16915;51.466;3.610;2022-07-21T08:55:43;18.00;99.90
30097;DHT22;16915;51.466;3.610;2022-07-21T08:58:13;18.00;99.90
30097;DHT22;16915;51.466;3.610;2022-07-21T09:00:42;18.00;99.90
30097;DHT22;16915;51.466;3.610;2022-07-21T09:03:18;18.00;99.90
30097;DHT22;16915;51.466;3.610;2022-07-21T09:06:02;18.00;99.90
30097;DHT22;16915;51.466;3.610;2022-07-21T09:08:35;18.00;99.90
30097;DHT22;16915;51.466;3.610;2022-07-21T09:13:42;18.00;99.90
30097;DHT22;16915;51.466;3.610;2022-07-21T09:16:09;18.10;99.90
30097;DHT22;16915;51.466;3.610;2022-07-21T09:18:47;18.10;99.90
30097;DHT22;16915;51.466;3.610;2022-07-21T09:21:15;18.10;99.90
30097;DHT22;16915;51.466;3.610;2022-07-21T09:23:41;18.10;99.90
30097;DHT22;16915;51.466;3.610;2022-07-21T09:26:07;18.20;99.90
30097;DHT22;16915;51.466;3.610;2022-07-21T09:28:34;18.30;99.90
30097;DHT22;16915;51.466;3.610;2022-07-21T09:31:02;18.50;99.90
30097;DHT22;16915;51.466;3.610;2022-07-21T09:33:38;18.50;99.90
30097;DHT22;16915;51.466;3.610;2022-07-21T09:36:14;18.50;99.90
30097;DHT22;16915;51.466;3.610;2022-07-21T09:38:44;18.40;99.90
30097;DHT22;16915;51.466;3.610;2022-07-21T09:41:13;18.30;99.90
30097;DHT22;16915;51.466;3.610;2022-07-21T09:43:50;18.30;99.90
30097;DHT22;16915;51.466;3.610;2022-07-21T09:46:25;18.30;99.90
30097;DHT22;16915;51.466;3.610;2022-07-21T09:48:55;18.20;99.90
30097;DHT22;16915;51.466;3.610;2022-07-21T09:51:31;18.20;99.90
30097;DHT22;16915;51.466;3.610;2022-07-21T09:56:24;18.10;99.90
30097;DHT22;16915;51.466;3.610;2022-07-21T09:58:52;18.00;99.90
30097;DHT22;16915;51.466;3.610;2022-07-21T10:01:18;18.00;99.90
30097;DHT22;16915;51.466;3.610;2022-07-21T10:03:45;18.00;99.90
30097;DHT22;16915;51.466;3.610;2022-07-21T10:06:13;18.00;99.90
30097;DHT22;16915;51.466;3.610;2022-07-21T10:08:39;18.00;99.90
30097;DHT22;16915;51.466;3.610;2022-07-21T10:11:06;18.00;99.90
30097;DHT22;16915;51.466;3.610;2022-07-21T10:13:32;18.00;99.90
30097;DHT22;16915;51.466;3.610;2022-07-21T10:15:58;18.00;99.90
30097;DHT22;16915;51.466;3.610;2022-07-21T10:18:25;18.10;99.90
30097;DHT22;16915;51.466;3.610;2022-07-21T10:20:57;18.20;99.90
30097;DHT22;16915;51.466;3.610;2022-07-21T10:23:35;18.20;99.90
30097;DHT22;16915;51.466;3.610;2022-07-21T10:26:03;18.20;99.90
30097;DHT22;16915;51.466;3.610;2022-07-21T10:28:31;18.20;99.90
30097;DHT22;16915;51.466;3.610;2022-07-21T10:30:58;18.20;99.90
30097;DHT22;16915;51.466;3.610;2022-07-21T10:36:09;18.20;99.90
30097;DHT22;16915;51.466;3.610;2022-07-21T10:38:38;18.20;99.90
30097;DHT22;16915;51.466;3.610;2022-07-21T10:41:05;18.20;99.90
30097;DHT22;16915;51.466;3.610;2022-07-21T10:45:58;18.40;99.90
30097;DHT22;16915;51.466;3.610;2022-07-21T10:51:04;18.60;99.90
30097;DHT22;16915;51.466;3.610;2022-07-21T10:53:32;18.60;99.90
30097;DHT22;16915;51.466;3.610;2022-07-21T10:55:58;18.60;99.90
30097;DHT22;16915;51.466;3.610;2022-07-21T11:03:39;18.80;99.90
30097;DHT22;16915;51.466;3.610;2022-07-21T11:11:07;18.80;99.90
30097;DHT22;16915;51.466;3.610;2022-07-21T11:19:43;18.70;99.90
30097;DHT22;16915;51.466;3.610;2022-07-21T11:22:20;18.80;99.90
30097;DHT22;16915;51.466;3.610;2022-07-21T11:24:49;18.80;99.90
30097;DHT22;16915;51.466;3.610;2022-07-21T11:27:20;18.90;99.90
30097;DHT22;16915;51.466;3.610;2022-07-21T11:29:49;18.90;99.90
30097;DHT22;16915;51.466;3.610;2022-07-21T11:32:15;19.00;99.90
30097;DHT22;16915;51.466;3.610;2022-07-21T11:34:56;19.00;99.90
30097;DHT22;16915;51.466;3.610;2022-07-21T11:39:58;19.20;99.90
30097;DHT22;16915;51.466;3.610;2022-07-21T11:42:25;19.10;99.90
30097;DHT22;16915;51.466;3.610;2022-07-21T11:44:51;19.10;99.90
30097;DHT22;16915;51.466;3.610;2022-07-21T11:47:17;19.10;99.90
30097;DHT22;16915;51.466;3.610;2022-07-21T11:49:43;19.10;99.90
30097;DHT22;16915;51.466;3.610;2022-07-21T11:52:14;19.20;99.90
30097;DHT22;16915;51.466;3.610;2022-07-21T11:54:52;19.10;99.90
30097;DHT22;16915;51.466;3.610;2022-07-21T11:57:20;19.10;99.90
30097;DHT22;16915;51.466;3.610;2022-07-21T11:59:47;19.00;99.90
30097;DHT22;16915;51.466;3.610;2022-07-21T12:02:15;19.00;99.90
30097;DHT22;16915;51.466;3.610;2022-07-21T12:04:54;18.90;99.90
30097;DHT22;16915;51.466;3.610;2022-07-21T12:07:29;18.80;99.90
30097;DHT22;16915;51.466;3.610;2022-07-21T12:10:11;18.60;99.90
30097;DHT22;16915;51.466;3.610;2022-07-21T12:12:44;18.60;99.90
30097;DHT22;16915;51.466;3.610;2022-07-21T12:17:41;18.60;99.90
30097;DHT22;16915;51.466;3.610;2022-07-21T12:20:09;18.60;99.90
30097;DHT22;16915;51.466;3.610;2022-07-21T12:22:39;18.70;99.90
30097;DHT22;16915;51.466;3.610;2022-07-21T12:25:08;18.70;99.90
30097;DHT22;16915;51.466;3.610;2022-07-21T12:27:36;18.70;99.90
30097;DHT22;16915;51.466;3.610;2022-07-21T12:30:04;18.70;99.90
30097;DHT22;16915;51.466;3.610;2022-07-21T12:32:49;18.80;99.90
30097;DHT22;16915;51.466;3.610;2022-07-21T12:35:19;18.90;99.90
30097;DHT22;16915;51.466;3.610;2022-07-21T12:40:37;19.20;99.90
30097;DHT22;16915;51.466;3.610;2022-07-21T12:43:13;19.20;99.90
30097;DHT22;16915;51.466;3.610;2022-07-21T12:45:59;19.20;99.90
30097;DHT22;16915;51.466;3.610;2022-07-21T12:48:31;19.10;99.90
30097;DHT22;16915;51.466;3.610;2022-07-21T12:51:07;19.10;99.90
30097;DHT22;16915;51.466;3.610;2022-07-21T12:53:37;19.10;99.90
30097;DHT22;16915;51.466;3.610;2022-07-21T12:56:04;19.20;99.90
30097;DHT22;16915;51.466;3.610;2022-07-21T12:58:30;19.20;99.90
30097;DHT22;16915;51.466;3.610;2022-07-21T13:00:55;19.20;99.90
30097;DHT22;16915;51.466;3.610;2022-07-21T13:03:21;19.10;99.90
30097;DHT22;16915;51.466;3.610;2022-07-21T13:05:47;19.10;99.90
30097;DHT22;16915;51.466;3.610;2022-07-21T13:08:13;19.10;99.90
30097;DHT22;16915;51.466;3.610;2022-07-21T13:10:39;19.10;99.90
30097;DHT22;16915;51.466;3.610;2022-07-21T13:13:04;19.20;99.90
30097;DHT22;16915;51.466;3.610;2022-07-21T13:15:30;19.20;99.90
30097;DHT22;16915;51.466;3.610;2022-07-21T13:17:56;19.20;99.90
30097;DHT22;16915;51.466;3.610;2022-07-21T13:20:21;19.30;99.90
30097;DHT22;16915;51.466;3.610;2022-07-21T13:22:47;19.40;99.90
30097;DHT22;16915;51.466;3.610;2022-07-21T13:25:14;19.40;99.90
30097;DHT22;16915;51.466;3.610;2022-07-21T13:27:40;19.50;99.90
30097;DHT22;16915;51.466;3.610;2022-07-21T13:30:06;19.70;99.90
30097;DHT22;16915;51.466;3.610;2022-07-21T13:32:33;19.80;99.90
30097;DHT22;16915;51.466;3.610;2022-07-21T13:34:59;19.80;99.90
30097;DHT22;16915;51.466;3.610;2022-07-21T13:37:25;19.80;99.90
30097;DHT22;16915;51.466;3.610;2022-07-21T13:39:50;19.90;99.90
30097;DHT22;16915;51.466;3.610;2022-07-21T13:42:16;20.00;99.90
30097;DHT22;16915;51.466;3.610;2022-07-21T13:44:43;19.90;99.90
30097;DHT22;16915;51.466;3.610;2022-07-21T13:47:08;19.90;99.90
30097;DHT22;16915;51.466;3.610;2022-07-21T13:49:34;19.80;99.90
30097;DHT22;16915;51.466;3.610;2022-07-21T13:51:59;19.70;99.90
30097;DHT22;16915;51.466;3.610;2022-07-21T13:54:25;19.60;99.90
30097;DHT22;16915;51.466;3.610;2022-07-21T13:56:51;19.50;99.90
30097;DHT22;16915;51.466;3.610;2022-07-21T13:59:16;19.40;99.90
30097;DHT22;16915;51.466;3.610;2022-07-21T14:01:42;19.40;99.90
30097;DHT22;16915;51.466;3.610;2022-07-21T14:04:08;19.40;99.90
30097;DHT22;16915;51.466;3.610;2022-07-21T14:06:34;19.70;99.90
30097;DHT22;16915;51.466;3.610;2022-07-21T14:09:00;19.90;99.90
30097;DHT22;16915;51.466;3.610;2022-07-21T14:11:25;19.90;99.90
30097;DHT22;16915;51.466;3.610;2022-07-21T14:13:54;19.90;99.90
30097;DHT22;16915;51.466;3.610;2022-07-21T14:16:19;20.00;99.90
30097;DHT22;16915;51.466;3.610;2022-07-21T14:18:45;20.00;99.90
30097;DHT22;16915;51.466;3.610;2022-07-21T14:21:10;20.30;99.90
30097;DHT22;16915;51.466;3.610;2022-07-21T14:23:36;20.40;99.90
30097;DHT22;16915;51.466;3.610;2022-07-21T14:26:02;20.60;99.90
30097;DHT22;16915;51.466;3.610;2022-07-21T14:28:27;20.70;99.90
30097;DHT22;16915;51.466;3.610;2022-07-21T14:30:53;20.80;99.90
30097;DHT22;16915;51.466;3.610;2022-07-21T14:33:19;20.70;99.90
30097;DHT22;16915;51.466;3.610;2022-07-21T14:35:44;20.50;99.90
30097;DHT22;16915;51.466;3.610;2022-07-21T14:38:10;20.40;99.90
30097;DHT22;16915;51.466;3.610;2022-07-21T14:40:36;20.20;99.90
30097;DHT22;16915;51.466;3.610;2022-07-21T14:43:02;20.00;99.90
30097;DHT22;16915;51.466;3.610;2022-07-21T14:45:28;19.90;99.90
30097;DHT22;16915;51.466;3.610;2022-07-21T14:47:55;20.00;99.90
30097;DHT22;16915;51.466;3.610;2022-07-21T14:50:23;20.10;99.90
30097;DHT22;16915;51.466;3.610;2022-07-21T14:52:50;20.10;99.90
30097;DHT22;16915;51.466;3.610;2022-07-21T14:55:16;20.10;99.90
30097;DHT22;16915;51.466;3.610;2022-07-21T14:57:43;20.00;99.90
30097;DHT22;16915;51.466;3.610;2022-07-21T15:00:09;19.90;99.90
30097;DHT22;16915;51.466;3.610;2022-07-21T15:02:36;19.90;99.90
30097;DHT22;16915;51.466;3.610;2022-07-21T15:05:02;19.80;99.90
30097;DHT22;16915;51.466;3.610;2022-07-21T15:07:28;19.80;99.90
30097;DHT22;16915;51.466;3.610;2022-07-21T15:10:00;19.80;99.90
30097;DHT22;16915;51.466;3.610;2022-07-21T15:12:26;19.80;99.90
30097;DHT22;16915;51.466;3.610;2022-07-21T15:14:51;19.80;99.90
30097;DHT22;16915;51.466;3.610;2022-07-21T15:17:17;19.90;99.90
30097;DHT22;16915;51.466;3.610;2022-07-21T15:19:43;19.90;99.90
30097;DHT22;16915;51.466;3.610;2022-07-21T15:22:09;19.90;99.90
30097;DHT22;16915;51.466;3.610;2022-07-21T15:24:36;19.90;99.90
30097;DHT22;16915;51.466;3.610;2022-07-21T15:27:01;19.90;99.90
30097;DHT22;16915;51.466;3.610;2022-07-21T15:29:27;19.80;99.90
30097;DHT22;16915;51.466;3.610;2022-07-21T15:31:53;19.90;99.90
30097;DHT22;16915;51.466;3.610;2022-07-21T15:34:19;19.80;99.90
30097;DHT22;16915;51.466;3.610;2022-07-21T15:36:44;19.70;99.90
30097;DHT22;16915;51.466;3.610;2022-07-21T15:39:11;19.70;99.90
30097;DHT22;16915;51.466;3.610;2022-07-21T15:41:37;19.70;99.90
30097;DHT22;16915;51.466;3.610;2022-07-21T15:44:04;19.70;99.90
30097;DHT22;16915;51.466;3.610;2022-07-21T15:46:31;19.60;99.90
30097;DHT22;16915;51.466;3.610;2022-07-21T15:48:56;19.60;99.90
30097;DHT22;16915;51.466;3.610;2022-07-21T15:51:22;19.60;99.90
30097;DHT22;16915;51.466;3.610;2022-07-21T15:53:47;19.60;99.90
30097;DHT22;16915;51.466;3.610;2022-07-21T15:56:13;19.50;99.90
30097;DHT22;16915;51.466;3.610;2022-07-21T15:58:39;19.50;99.90
30097;DHT22;16915;51.466;3.610;2022-07-21T16:01:25;19.60;99.90
30097;DHT22;16915;51.466;3.610;2022-07-21T16:03:51;19.70;99.90
30097;DHT22;16915;51.466;3.610;2022-07-21T16:06:16;19.70;99.90
30097;DHT22;16915;51.466;3.610;2022-07-21T16:08:43;19.80;99.90